createdAt,value
2019-05-12T00:00:08.317Z,27.40
2019-05-12T00:00:50.682Z,27.40
2019-05-12T00:01:38.978Z,27.40
2019-05-12T00:02:17.859Z,27.40
2019-05-12T00:02:59.114Z,27.40
2019-05-12T00:03:37.809Z,27.40
2019-05-12T00:04:18.724Z,27.40
2019-05-12T00:04:58.268Z,27.40
2019-05-12T00:05:38.305Z,27.40
2019-05-12T00:06:17.664Z,27.40
2019-05-12T00:06:58.536Z,27.40
2019-05-12T00:07:38.180Z,27.40
2019-05-12T00:08:18.868Z,27.40
2019-05-12T00:08:59.323Z,27.40
2019-05-12T00:09:38.838Z,27.40
2019-05-12T00:10:18.240Z,27.30
2019-05-12T00:10:58.275Z,27.30
2019-05-12T00:11:37.928Z,27.20
2019-05-12T00:12:18.462Z,27.20
2019-05-12T00:12:58.189Z,27.20
2019-05-12T00:13:38.534Z,27.20
2019-05-12T00:14:20.612Z,27.20
2019-05-12T00:14:59.220Z,27.10
2019-05-12T00:15:38.557Z,27.10
2019-05-12T00:16:40.376Z,27.10
2019-05-12T00:17:13.940Z,27.10
2019-05-12T00:17:53.171Z,27.10
2019-05-12T00:18:32.853Z,27.10
2019-05-12T00:19:11.691Z,27.10
2019-05-12T00:19:50.282Z,27.10
2019-05-12T00:20:29.118Z,27.20
2019-05-12T00:21:08.838Z,27.30
2019-05-12T00:21:50.134Z,27.30
2019-05-12T00:22:34.037Z,27.30
2019-05-12T00:23:23.704Z,27.20
2019-05-12T00:24:08.793Z,27.30
2019-05-12T00:24:47.904Z,27.30
2019-05-12T00:25:28.317Z,27.30
2019-05-12T00:26:07.984Z,27.30
2019-05-12T00:26:48.346Z,27.20
2019-05-12T00:27:28.455Z,27.20
2019-05-12T00:28:07.821Z,27.20
2019-05-12T00:28:48.241Z,27.20
2019-05-12T00:29:28.735Z,27.30
2019-05-12T00:30:10.114Z,27.30
2019-05-12T00:30:52.122Z,27.30
2019-05-12T00:31:30.675Z,27.30
2019-05-12T00:32:09.235Z,27.30
2019-05-12T00:32:48.016Z,27.20
2019-05-12T00:33:28.262Z,27.20
2019-05-12T00:34:07.818Z,27.10
2019-05-12T00:34:48.054Z,27.10
2019-05-12T00:35:28.458Z,27.10
2019-05-12T00:36:08.072Z,27.10
2019-05-12T00:36:48.495Z,27.20
2019-05-12T00:37:28.769Z,27.10
2019-05-12T00:38:09.525Z,27.20
2019-05-12T00:38:48.918Z,27.20
2019-05-12T00:39:28.021Z,27.20
2019-05-12T00:40:08.813Z,27.20
2019-05-12T00:40:47.893Z,27.20
2019-05-12T00:41:28.354Z,27.30
2019-05-12T00:42:07.838Z,27.30
2019-05-12T00:42:48.433Z,27.30
2019-05-12T00:43:28.113Z,27.30
2019-05-12T00:44:08.816Z,27.40
2019-05-12T00:44:47.887Z,27.40
2019-05-12T00:45:28.937Z,27.40
2019-05-12T00:46:07.933Z,27.40
2019-05-12T00:46:48.567Z,27.40
2019-05-12T00:47:28.053Z,27.40
2019-05-12T00:48:09.033Z,27.40
2019-05-12T00:48:48.236Z,27.40
2019-05-12T00:49:28.961Z,27.40
2019-05-12T00:50:09.129Z,27.40
2019-05-12T00:50:48.677Z,27.40
2019-05-12T00:51:28.891Z,27.40
2019-05-12T00:52:08.139Z,27.40
2019-05-12T00:52:48.880Z,27.40
2019-05-12T00:53:39.368Z,27.30
2019-05-12T00:54:09.277Z,27.20
2019-05-12T00:54:48.373Z,27.20
2019-05-12T00:55:28.979Z,27.10
2019-05-12T00:56:08.499Z,27.00
2019-05-12T00:56:52.702Z,26.90
2019-05-12T00:57:31.469Z,26.90
2019-05-12T00:58:10.068Z,26.90
2019-05-12T00:58:48.884Z,26.90
2019-05-12T00:59:27.926Z,27.00
2019-05-12T01:00:08.771Z,27.10
2019-05-12T01:00:48.657Z,27.10
2019-05-12T01:01:28.598Z,27.10
2019-05-12T01:02:08.010Z,27.20
2019-05-12T01:02:48.601Z,27.20
2019-05-12T01:03:27.999Z,27.20
2019-05-12T01:04:08.947Z,27.20
2019-05-12T01:04:50.291Z,27.30
2019-05-12T01:05:31.955Z,27.30
2019-05-12T01:06:10.730Z,27.30
2019-05-12T01:06:51.951Z,27.40
2019-05-12T01:07:30.533Z,27.40
2019-05-12T01:08:09.703Z,27.40
2019-05-12T01:08:48.705Z,27.40
2019-05-12T01:09:28.534Z,27.30
2019-05-12T01:10:08.614Z,27.40
2019-05-12T01:10:50.973Z,27.40
2019-05-12T01:11:29.702Z,27.40
2019-05-12T01:12:10.807Z,27.40
2019-05-12T01:12:49.414Z,27.30
2019-05-12T01:13:30.425Z,27.40
2019-05-12T01:14:09.849Z,27.40
2019-05-12T01:14:48.685Z,27.40
2019-05-12T01:15:28.791Z,27.30
2019-05-12T01:16:08.133Z,27.30
2019-05-12T01:16:48.594Z,27.30
2019-05-12T01:17:28.245Z,27.30
2019-05-12T01:18:09.294Z,27.30
2019-05-12T01:18:47.972Z,27.30
2019-05-12T01:19:28.824Z,27.20
2019-05-12T01:20:08.847Z,27.30
2019-05-12T01:20:47.921Z,27.30
2019-05-12T01:21:28.585Z,27.30
2019-05-12T01:22:08.419Z,27.30
2019-05-12T01:22:50.508Z,27.30
2019-05-12T01:23:28.642Z,27.30
2019-05-12T01:24:08.838Z,27.30
2019-05-12T01:24:48.338Z,27.30
2019-05-12T01:25:28.900Z,27.30
2019-05-12T01:26:08.814Z,27.30
2019-05-12T01:26:49.925Z,27.30
2019-05-12T01:27:29.817Z,27.30
2019-05-12T01:28:08.558Z,27.40
2019-05-12T01:28:48.796Z,27.30
2019-05-12T01:29:28.197Z,27.30
2019-05-12T01:30:08.702Z,27.30
2019-05-12T01:30:47.968Z,27.30
2019-05-12T01:31:28.577Z,27.30
2019-05-12T01:32:18.297Z,27.30
2019-05-12T01:32:58.115Z,27.30
2019-05-12T01:33:38.130Z,27.30
2019-05-12T01:34:18.192Z,27.30
2019-05-12T01:34:57.784Z,27.30
2019-05-12T01:35:38.762Z,27.30
2019-05-12T01:36:18.126Z,27.30
2019-05-12T01:37:18.389Z,27.40
2019-05-12T01:37:58.844Z,27.30
2019-05-12T01:38:37.954Z,27.40
2019-05-12T01:39:18.773Z,27.30
2019-05-12T01:39:59.980Z,27.40
2019-05-12T01:40:39.475Z,27.40
2019-05-12T01:41:18.234Z,27.30
2019-05-12T01:41:58.700Z,27.30
2019-05-12T01:42:38.244Z,27.30
2019-05-12T01:43:18.705Z,27.30
2019-05-12T01:43:59.984Z,27.30
2019-05-12T01:44:38.855Z,27.30
2019-05-12T01:45:18.029Z,27.30
2019-05-12T01:45:58.924Z,27.30
2019-05-12T01:46:38.300Z,27.30
2019-05-12T01:47:18.809Z,27.30
2019-05-12T01:47:59.141Z,27.30
2019-05-12T01:48:38.251Z,27.30
2019-05-12T01:49:18.705Z,27.40
2019-05-12T01:49:58.128Z,27.40
2019-05-12T01:50:38.587Z,27.40
2019-05-12T01:51:21.832Z,27.50
2019-05-12T01:52:01.531Z,27.50
2019-05-12T01:52:41.068Z,27.50
2019-05-12T01:53:20.035Z,27.50
2019-05-12T01:54:10.977Z,27.50
2019-05-12T01:54:38.671Z,27.50
2019-05-12T01:55:18.617Z,27.50
2019-05-12T01:56:01.944Z,27.60
2019-05-12T01:56:40.388Z,27.50
2019-05-12T01:57:19.772Z,27.50
2019-05-12T01:58:01.097Z,27.60
2019-05-12T01:58:39.881Z,27.50
2019-05-12T01:59:18.550Z,27.50
2019-05-12T01:59:58.633Z,27.50
2019-05-12T02:00:38.755Z,27.50
2019-05-12T02:01:22.704Z,27.50
2019-05-12T02:02:01.582Z,27.50
2019-05-12T02:02:40.389Z,27.50
2019-05-12T02:03:19.110Z,27.50
2019-05-12T02:03:58.975Z,27.60
2019-05-12T02:04:55.381Z,27.50
2019-05-12T02:05:34.399Z,27.60
2019-05-12T02:06:18.510Z,27.60
2019-05-12T02:06:57.857Z,27.50
2019-05-12T02:07:39.409Z,27.60
2019-05-12T02:08:22.765Z,27.50
2019-05-12T02:09:03.160Z,27.60
2019-05-12T02:09:41.854Z,27.50
2019-05-12T02:10:21.262Z,27.60
2019-05-12T02:11:18.106Z,27.60
2019-05-12T02:11:58.098Z,27.50
2019-05-12T02:12:38.134Z,27.50
2019-05-12T02:13:18.164Z,27.50
2019-05-12T02:13:57.879Z,27.50
2019-05-12T02:14:38.194Z,27.40
2019-05-12T02:15:18.360Z,27.40
2019-05-12T02:15:57.859Z,27.40
2019-05-12T02:16:38.478Z,27.40
2019-05-12T02:17:17.965Z,27.40
2019-05-12T02:17:58.836Z,27.30
2019-05-12T02:18:38.187Z,27.40
2019-05-12T02:19:17.942Z,27.30
2019-05-12T02:19:58.586Z,27.40
2019-05-12T02:20:38.184Z,27.40
2019-05-12T02:21:18.943Z,27.30
2019-05-12T02:21:57.912Z,27.40
2019-05-12T02:22:38.853Z,27.30
2019-05-12T02:23:17.873Z,27.40
2019-05-12T02:23:58.332Z,27.30
2019-05-12T02:24:39.043Z,27.30
2019-05-12T02:25:38.032Z,27.30
2019-05-12T02:26:19.017Z,27.30
2019-05-12T02:26:57.956Z,27.30
2019-05-12T02:27:39.442Z,27.40
2019-05-12T02:28:18.570Z,27.30
2019-05-12T02:28:58.625Z,27.40
2019-05-12T02:31:21.726Z,27.30
2019-05-12T02:32:00.712Z,27.40
2019-05-12T02:32:49.453Z,27.40
2019-05-12T02:33:24.452Z,27.30
2019-05-12T02:34:05.493Z,27.40
2019-05-12T02:34:45.573Z,27.30
2019-05-12T02:35:24.753Z,27.30
2019-05-12T02:36:04.691Z,27.40
2019-05-12T02:36:44.808Z,27.40
2019-05-12T02:37:26.209Z,27.40
2019-05-12T02:38:05.052Z,27.30
2019-05-12T02:38:45.253Z,27.30
2019-05-12T02:39:24.838Z,27.30
2019-05-12T02:40:04.811Z,27.30
2019-05-12T02:40:44.855Z,27.30
2019-05-12T02:41:44.723Z,27.40
2019-05-12T02:42:24.388Z,27.30
2019-05-12T02:43:05.490Z,27.30
2019-05-12T02:43:45.673Z,27.30
2019-05-12T02:44:24.831Z,27.30
2019-05-12T02:45:05.524Z,27.30
2019-05-12T02:45:44.677Z,27.30
2019-05-12T02:46:25.578Z,27.30
2019-05-12T02:47:05.140Z,27.30
2019-05-12T02:47:45.866Z,27.30
2019-05-12T02:48:25.068Z,27.30
2019-05-12T02:49:04.842Z,27.30
2019-05-12T02:49:44.903Z,27.30
2019-05-12T02:50:47.895Z,27.30
2019-05-12T02:51:26.635Z,27.30
2019-05-12T02:52:05.809Z,27.30
2019-05-12T02:52:44.841Z,27.30
2019-05-12T02:53:24.810Z,27.30
2019-05-12T02:54:05.533Z,27.30
2019-05-12T02:54:54.438Z,27.30
2019-05-12T02:55:25.694Z,27.30
2019-05-12T02:56:05.178Z,27.30
2019-05-12T02:56:44.894Z,27.30
2019-05-12T02:57:25.606Z,27.30
2019-05-12T02:58:05.188Z,27.30
2019-05-12T02:58:45.293Z,27.30
2019-05-12T02:59:25.241Z,27.30
2019-05-12T03:00:07.379Z,27.30
2019-05-12T03:00:46.192Z,27.30
2019-05-12T03:01:25.089Z,27.30
2019-05-12T03:02:05.259Z,27.30
2019-05-12T03:02:44.355Z,27.30
2019-05-12T03:03:25.063Z,27.40
2019-05-12T03:04:05.704Z,27.30
2019-05-12T03:04:44.302Z,27.30
2019-05-12T03:05:24.833Z,27.30
2019-05-12T03:06:05.431Z,27.30
2019-05-12T03:06:44.640Z,27.30
2019-05-12T03:07:25.422Z,27.30
2019-05-12T03:08:05.332Z,27.20
2019-05-12T03:08:46.931Z,27.30
2019-05-12T03:09:25.348Z,27.30
2019-05-12T03:10:05.326Z,27.30
2019-05-12T03:10:45.115Z,27.30
2019-05-12T03:11:24.926Z,27.30
2019-05-12T03:12:05.987Z,27.30
2019-05-12T03:12:45.217Z,27.30
2019-05-12T03:13:25.266Z,27.30
2019-05-12T03:14:04.484Z,27.30
2019-05-12T03:14:44.688Z,27.30
2019-05-12T03:15:25.056Z,27.20
2019-05-12T03:16:04.890Z,27.20
2019-05-12T03:16:45.351Z,27.20
2019-05-12T03:17:25.349Z,27.20
2019-05-12T03:18:06.299Z,27.30
2019-05-12T03:18:44.952Z,27.20
2019-05-12T03:19:25.250Z,27.20
2019-05-12T03:20:04.969Z,27.30
2019-05-12T03:20:45.497Z,27.30
2019-05-12T03:21:25.122Z,27.30
2019-05-12T03:22:05.022Z,27.30
2019-05-12T03:22:44.912Z,27.30
2019-05-12T03:23:24.794Z,27.30
2019-05-12T03:24:06.092Z,27.30
2019-05-12T03:24:44.927Z,27.30
2019-05-12T03:25:29.946Z,27.30
2019-05-12T03:26:05.791Z,27.30
2019-05-12T03:26:45.130Z,27.30
2019-05-12T03:27:25.620Z,27.30
2019-05-12T03:28:07.345Z,27.30
2019-05-12T03:28:44.639Z,27.30
2019-05-12T03:29:25.116Z,27.30
2019-05-12T03:30:30.640Z,27.30
2019-05-12T03:31:09.421Z,27.30
2019-05-12T03:31:49.322Z,27.30
2019-05-12T03:32:28.456Z,27.40
2019-05-12T03:33:10.763Z,27.40
2019-05-12T03:33:52.953Z,27.40
2019-05-12T03:34:29.263Z,27.30
2019-05-12T03:35:09.168Z,27.30
2019-05-12T03:35:52.947Z,27.40
2019-05-12T03:36:34.652Z,27.40
2019-05-12T03:37:08.645Z,27.40
2019-05-12T03:37:48.962Z,27.30
2019-05-12T03:38:28.090Z,27.40
2019-05-12T03:39:10.374Z,27.30
2019-05-12T03:39:49.124Z,27.40
2019-05-12T03:40:27.879Z,27.40
2019-05-12T03:41:07.177Z,27.40
2019-05-12T03:41:45.498Z,27.40
2019-05-12T03:42:25.496Z,27.30
2019-05-12T03:43:05.895Z,27.30
2019-05-12T03:43:46.103Z,27.40
2019-05-12T03:44:26.922Z,27.40
2019-05-12T03:45:08.054Z,27.40
2019-05-12T03:45:48.115Z,27.40
2019-05-12T03:46:26.879Z,27.40
2019-05-12T03:47:05.561Z,27.40
2019-05-12T03:47:45.503Z,27.40
2019-05-12T03:48:25.206Z,27.40
2019-05-12T03:49:05.258Z,27.40
2019-05-12T03:49:45.400Z,27.40
2019-05-12T03:50:24.654Z,27.40
2019-05-12T03:51:05.745Z,27.40
2019-05-12T03:51:45.727Z,27.40
2019-05-12T03:52:24.579Z,27.40
2019-05-12T03:53:09.015Z,27.50
2019-05-12T03:53:45.516Z,27.40
2019-05-12T03:54:24.574Z,27.50
2019-05-12T03:55:05.553Z,27.40
2019-05-12T03:55:47.003Z,27.40
2019-05-12T03:56:26.157Z,27.50
2019-05-12T03:57:04.826Z,27.40
2019-05-12T03:57:44.998Z,27.50
2019-05-12T03:58:25.608Z,27.50
2019-05-12T03:59:06.215Z,27.50
2019-05-12T03:59:45.004Z,27.60
2019-05-12T04:00:24.930Z,27.50
2019-05-12T04:01:04.698Z,27.50
2019-05-12T04:01:45.553Z,27.60
2019-05-12T04:02:25.105Z,27.50
2019-05-12T04:03:07.485Z,27.60
2019-05-12T04:03:46.383Z,27.60
2019-05-12T04:04:25.290Z,27.60
2019-05-12T04:05:05.646Z,27.60
2019-05-12T04:05:45.371Z,27.60
2019-05-12T04:06:24.818Z,27.60
2019-05-12T04:07:05.147Z,27.60
2019-05-12T04:07:45.016Z,27.60
2019-05-12T04:08:24.678Z,27.60
2019-05-12T04:09:04.732Z,27.60
2019-05-12T04:09:45.117Z,27.60
2019-05-12T04:10:24.760Z,27.60
2019-05-12T04:11:05.252Z,27.60
2019-05-12T04:11:44.520Z,27.60
2019-05-12T04:12:25.447Z,27.60
2019-05-12T04:13:07.715Z,27.70
2019-05-12T04:13:49.722Z,27.60
2019-05-12T04:14:28.189Z,27.60
2019-05-12T04:15:09.526Z,27.60
2019-05-12T04:15:48.437Z,27.60
2019-05-12T04:16:27.707Z,27.70
2019-05-12T04:17:06.199Z,27.70
2019-05-12T04:17:47.616Z,27.70
2019-05-12T04:18:26.427Z,27.70
2019-05-12T04:19:05.675Z,27.70
2019-05-12T04:19:44.805Z,27.70
2019-05-12T04:20:25.396Z,27.70
2019-05-12T04:21:05.538Z,27.70
2019-05-12T04:21:44.992Z,27.70
2019-05-12T04:22:24.876Z,27.70
2019-05-12T04:23:06.042Z,27.80
2019-05-12T04:23:47.173Z,27.70
2019-05-12T04:24:25.542Z,27.70
2019-05-12T04:25:06.251Z,27.70
2019-05-12T04:25:51.988Z,27.70
2019-05-12T04:26:27.524Z,27.70
2019-05-12T04:27:08.299Z,27.80
2019-05-12T04:27:47.022Z,27.80
2019-05-12T04:28:25.818Z,27.80
2019-05-12T04:29:05.249Z,27.80
2019-05-12T04:29:44.207Z,27.80
2019-05-12T04:30:24.992Z,27.80
2019-05-12T04:31:05.425Z,27.80
2019-05-12T04:31:44.380Z,27.80
2019-05-12T04:32:25.083Z,27.80
2019-05-12T04:33:04.806Z,27.80
2019-05-12T04:33:45.250Z,27.80
2019-05-12T04:34:25.125Z,27.80
2019-05-12T04:35:04.685Z,27.80
2019-05-12T04:35:45.274Z,27.80
2019-05-12T04:36:24.824Z,27.80
2019-05-12T04:37:04.548Z,27.80
2019-05-12T04:37:44.842Z,27.80
2019-05-12T04:38:24.891Z,27.90
2019-05-12T04:39:04.381Z,27.90
2019-05-12T04:39:44.735Z,27.80
2019-05-12T04:40:24.780Z,27.90
2019-05-12T04:41:05.883Z,27.90
2019-05-12T04:41:44.692Z,27.90
2019-05-12T04:42:25.118Z,27.90
2019-05-12T04:43:05.895Z,28.00
2019-05-12T04:43:45.068Z,28.00
2019-05-12T04:44:25.085Z,28.00
2019-05-12T04:45:09.549Z,28.10
2019-05-12T04:45:48.177Z,28.10
2019-05-12T04:46:27.108Z,28.10
2019-05-12T04:47:08.703Z,28.10
2019-05-12T04:47:47.445Z,28.10
2019-05-12T04:48:26.240Z,28.10
2019-05-12T04:49:05.678Z,28.00
2019-05-12T04:49:45.280Z,28.00
2019-05-12T04:50:24.654Z,28.00
2019-05-12T04:51:05.151Z,28.00
2019-05-12T04:51:45.210Z,28.00
2019-05-12T04:52:24.940Z,28.00
2019-05-12T04:53:14.355Z,28.00
2019-05-12T04:53:54.901Z,28.00
2019-05-12T04:54:35.593Z,28.00
2019-05-12T04:55:15.149Z,28.00
2019-05-12T04:56:10.809Z,28.00
2019-05-12T04:56:39.889Z,28.00
2019-05-12T04:57:21.094Z,28.10
2019-05-12T04:57:59.933Z,28.10
2019-05-12T04:58:40.081Z,28.10
2019-05-12T04:59:20.259Z,28.10
2019-05-12T04:59:58.984Z,28.10
2019-05-12T05:00:38.071Z,28.10
2019-05-12T05:01:17.999Z,28.10
2019-05-12T05:01:56.985Z,28.10
2019-05-12T05:02:36.683Z,28.10
2019-05-12T05:03:15.786Z,28.10
2019-05-12T05:03:54.798Z,28.10
2019-05-12T05:04:34.705Z,28.10
2019-05-12T05:05:19.247Z,28.10
2019-05-12T05:05:58.276Z,28.20
2019-05-12T05:06:39.651Z,28.20
2019-05-12T05:07:18.203Z,28.20
2019-05-12T05:07:57.189Z,28.20
2019-05-12T05:08:36.250Z,28.20
2019-05-12T05:09:14.979Z,28.20
2019-05-12T05:10:34.126Z,28.20
2019-05-12T05:11:14.839Z,28.20
2019-05-12T05:11:54.301Z,28.20
2019-05-12T05:12:34.524Z,28.20
2019-05-12T05:13:15.032Z,28.20
2019-05-12T05:13:54.783Z,28.20
2019-05-12T05:14:34.122Z,28.30
2019-05-12T05:15:14.684Z,28.30
2019-05-12T05:15:54.926Z,28.30
2019-05-12T05:16:34.799Z,28.30
2019-05-12T05:17:15.027Z,28.30
2019-05-12T05:17:54.973Z,28.30
2019-05-12T05:18:34.397Z,28.40
2019-05-12T05:19:13.873Z,28.40
2019-05-12T05:19:53.495Z,28.40
2019-05-12T05:20:34.355Z,28.40
2019-05-12T05:21:13.885Z,28.40
2019-05-12T05:21:54.162Z,28.40
2019-05-12T05:22:38.082Z,28.40
2019-05-12T05:23:16.189Z,28.40
2019-05-12T05:23:55.016Z,28.40
2019-05-12T05:24:34.017Z,28.40
2019-05-12T05:25:14.487Z,28.40
2019-05-12T05:25:53.828Z,28.40
2019-05-12T05:26:36.683Z,28.40
2019-05-12T05:27:13.838Z,28.40
2019-05-12T05:27:53.340Z,28.30
2019-05-12T05:28:34.015Z,28.30
2019-05-12T05:29:13.506Z,28.30
2019-05-12T05:29:54.347Z,28.30
2019-05-12T05:30:33.894Z,28.30
2019-05-12T05:31:13.999Z,28.30
2019-05-12T05:31:53.440Z,28.30
2019-05-12T05:32:35.668Z,28.30
2019-05-12T05:33:14.764Z,28.30
2019-05-12T05:33:53.647Z,28.30
2019-05-12T05:34:34.274Z,28.30
2019-05-12T05:35:13.674Z,28.30
2019-05-12T05:35:54.280Z,28.40
2019-05-12T05:36:34.563Z,28.30
2019-05-12T05:37:14.553Z,28.40
2019-05-12T05:37:53.985Z,28.40
2019-05-12T05:38:34.279Z,28.40
2019-05-12T05:39:14.162Z,28.40
2019-05-12T05:43:29.739Z,28.40
2019-05-12T05:44:08.706Z,28.40
2019-05-12T05:44:48.115Z,28.40
2019-05-12T05:45:27.290Z,28.40
2019-05-12T05:46:07.960Z,28.40
2019-05-12T05:48:49.506Z,28.40
2019-05-12T05:50:29.454Z,28.40
2019-05-12T05:51:09.099Z,28.40
2019-05-12T05:51:53.908Z,28.40
2019-05-12T05:52:33.083Z,28.40
2019-05-12T05:53:27.142Z,28.40
2019-05-12T05:54:05.898Z,28.40
2019-05-12T05:54:44.877Z,28.30
2019-05-12T05:57:29.919Z,28.30
2019-05-12T05:58:10.588Z,28.30
2019-05-12T05:58:51.783Z,28.30
2019-05-12T05:59:36.527Z,28.30
2019-05-12T06:00:17.294Z,28.40
2019-05-12T06:00:54.766Z,28.40
2019-05-12T06:01:54.837Z,28.40
2019-05-12T06:02:55.943Z,28.40
2019-05-12T06:03:34.338Z,28.40
2019-05-12T06:04:14.082Z,28.40
2019-05-12T06:04:56.207Z,28.40
2019-05-12T06:05:39.738Z,28.40
2019-05-12T06:06:18.675Z,28.40
2019-05-12T06:06:57.649Z,28.40
2019-05-12T06:07:54.290Z,28.40
2019-05-12T06:08:50.782Z,28.40
2019-05-12T06:09:44.471Z,28.50
2019-05-12T06:10:34.741Z,28.40
2019-05-12T06:11:14.842Z,28.40
2019-05-12T06:11:50.054Z,28.40
2019-05-12T06:12:28.639Z,28.50
2019-05-12T06:13:07.645Z,28.50
2019-05-12T06:13:47.844Z,28.50
2019-05-12T06:14:26.810Z,28.40
2019-05-12T06:15:24.555Z,28.50
2019-05-12T06:16:04.422Z,28.50
2019-05-12T06:16:43.688Z,28.50
2019-05-12T06:17:23.681Z,28.50
2019-05-12T06:18:03.756Z,28.50
2019-05-12T06:18:43.980Z,28.50
2019-05-12T06:19:26.076Z,28.50
2019-05-12T06:20:04.403Z,28.60
2019-05-12T06:25:18.295Z,28.60
2019-05-12T06:25:57.282Z,28.60
2019-05-12T06:26:36.054Z,28.60
2019-05-12T06:27:20.613Z,28.70
2019-05-12T06:28:00.065Z,28.70
2019-05-12T06:28:39.484Z,28.70
2019-05-12T06:29:20.186Z,28.70
2019-05-12T06:30:00.738Z,28.70
2019-05-12T06:30:54.492Z,28.70
2019-05-12T06:31:54.153Z,28.80
2019-05-12T06:32:33.627Z,28.80
2019-05-12T06:33:14.415Z,28.80
2019-05-12T06:33:53.611Z,28.80
2019-05-12T06:34:34.319Z,28.80
2019-05-12T06:35:15.888Z,28.80
2019-05-12T06:35:54.331Z,28.90
2019-05-12T06:36:56.992Z,28.80
2019-05-12T06:37:34.249Z,28.80
2019-05-12T06:38:13.541Z,28.80
2019-05-12T06:38:54.086Z,28.90
2019-05-12T06:39:34.331Z,28.90
2019-05-12T06:40:14.107Z,28.90
2019-05-12T06:40:54.428Z,28.90
2019-05-12T06:41:33.799Z,28.90
2019-05-12T06:44:55.047Z,28.90
2019-05-12T06:46:04.559Z,29.00
2019-05-12T06:47:26.051Z,28.90
2019-05-12T06:48:07.786Z,28.90
2019-05-12T06:48:46.871Z,29.00
2019-05-12T06:49:25.838Z,29.00
2019-05-12T06:50:05.896Z,29.00
2019-05-12T06:50:49.434Z,29.00
2019-05-12T06:51:28.595Z,29.00
2019-05-12T06:52:16.706Z,29.10
2019-05-12T06:52:55.591Z,29.00
2019-05-12T06:53:34.588Z,29.00
2019-05-12T06:54:33.554Z,29.00
2019-05-12T06:55:14.600Z,29.00
2019-05-12T06:55:54.003Z,29.00
2019-05-12T06:56:39.233Z,29.00
2019-05-12T06:57:24.431Z,29.00
2019-05-12T06:57:58.650Z,29.00
2019-05-12T06:58:37.395Z,29.00
2019-05-12T06:59:16.806Z,29.00
2019-05-12T06:59:55.426Z,29.00
2019-05-12T07:00:35.119Z,29.00
2019-05-12T07:01:19.146Z,29.00
2019-05-12T07:02:00.189Z,29.00
2019-05-12T07:02:48.453Z,29.00
2019-05-12T07:03:19.379Z,29.00
2019-05-12T07:04:00.628Z,29.10
2019-05-12T07:04:41.198Z,29.10
2019-05-12T07:05:18.462Z,29.10
2019-05-12T07:05:57.462Z,29.10
2019-05-12T07:06:37.455Z,29.10
2019-05-12T07:07:16.117Z,29.10
2019-05-12T07:08:17.920Z,29.10
2019-05-12T07:09:03.589Z,29.20
2019-05-12T07:09:36.657Z,29.10
2019-05-12T07:10:35.075Z,29.20
2019-05-12T07:11:01.644Z,29.10
2019-05-12T07:11:42.440Z,29.10
2019-05-12T07:12:15.993Z,29.10
2019-05-12T07:13:00.993Z,29.10
2019-05-12T07:13:37.614Z,29.10
2019-05-12T07:14:22.392Z,29.20
2019-05-12T07:15:03.583Z,29.20
2019-05-12T07:15:41.043Z,29.20
2019-05-12T07:16:26.742Z,29.20
2019-05-12T07:17:06.048Z,29.20
2019-05-12T07:17:55.729Z,29.20
2019-05-12T07:18:36.999Z,29.20
2019-05-12T07:19:17.262Z,29.20
2019-05-12T07:19:56.986Z,29.20
2019-05-12T07:20:38.972Z,29.20
2019-05-12T07:21:20.166Z,29.30
2019-05-12T07:22:03.570Z,29.30
2019-05-12T07:22:45.884Z,29.30
2019-05-12T07:23:25.808Z,29.30
2019-05-12T07:24:09.083Z,29.30
2019-05-12T07:24:50.440Z,29.30
2019-05-12T07:25:31.254Z,29.30
2019-05-12T07:26:05.025Z,29.30
2019-05-12T07:26:47.562Z,29.30
2019-05-12T07:27:54.941Z,29.30
2019-05-12T07:28:53.916Z,29.30
2019-05-12T07:29:30.988Z,29.30
2019-05-12T07:30:10.685Z,29.30
2019-05-12T07:30:50.174Z,29.30
2019-05-12T07:31:29.022Z,29.30
2019-05-12T07:32:16.551Z,29.30
2019-05-12T07:32:51.116Z,29.30
2019-05-12T07:33:35.249Z,29.30
2019-05-12T07:34:08.767Z,29.20
2019-05-12T07:34:47.763Z,29.20
2019-05-12T07:35:45.986Z,29.20
2019-05-12T07:36:24.870Z,29.20
2019-05-12T07:37:04.395Z,29.20
2019-05-12T07:37:43.731Z,29.20
2019-05-12T07:38:25.686Z,29.20
2019-05-12T07:39:05.373Z,29.20
2019-05-12T07:39:49.469Z,29.30
2019-05-12T07:40:30.103Z,29.30
2019-05-12T07:41:10.555Z,29.30
2019-05-12T07:41:50.895Z,29.30
2019-05-12T07:42:31.372Z,29.30
2019-05-12T07:43:10.050Z,29.30
2019-05-12T07:43:50.639Z,29.30
2019-05-12T07:44:34.341Z,29.30
2019-05-12T07:45:11.472Z,29.30
2019-05-12T07:45:56.637Z,29.30
2019-05-12T07:46:34.074Z,29.30
2019-05-12T07:47:13.791Z,29.40
2019-05-12T07:47:54.128Z,29.40
2019-05-12T07:48:33.651Z,29.40
2019-05-12T07:49:14.134Z,29.40
2019-05-12T07:49:53.776Z,29.40
2019-05-12T07:50:34.488Z,29.50
2019-05-12T07:51:13.759Z,29.40
2019-05-12T07:51:54.203Z,29.40
2019-05-12T07:52:33.824Z,29.40
2019-05-12T07:53:14.484Z,29.40
2019-05-12T07:53:55.171Z,29.50
2019-05-12T07:54:39.441Z,29.50
2019-05-12T07:55:17.545Z,29.50
2019-05-12T07:55:56.510Z,29.50
2019-05-12T07:56:35.851Z,29.40
2019-05-12T07:57:17.437Z,29.40
2019-05-12T07:57:58.703Z,29.40
2019-05-12T07:58:40.887Z,29.40
2019-05-12T07:59:21.006Z,29.40
2019-05-12T07:59:59.918Z,29.40
2019-05-12T08:00:38.851Z,29.40
2019-05-12T08:01:18.874Z,29.40
2019-05-12T08:01:58.022Z,29.40
2019-05-12T08:02:36.779Z,29.40
2019-05-12T08:03:20.963Z,29.50
2019-05-12T08:04:00.031Z,29.50
2019-05-12T08:05:19.399Z,29.50
2019-05-12T08:05:57.410Z,29.50
2019-05-12T08:06:41.774Z,29.50
2019-05-12T08:07:19.938Z,29.50
2019-05-12T08:08:00.655Z,29.50
2019-05-12T08:08:36.206Z,29.50
2019-05-12T08:09:15.011Z,29.50
2019-05-12T08:09:56.048Z,29.50
2019-05-12T08:10:35.459Z,29.50
2019-05-12T08:12:34.043Z,29.50
2019-05-12T08:12:59.391Z,29.50
2019-05-12T08:14:13.727Z,29.40
2019-05-12T08:14:50.365Z,29.40
2019-05-12T08:15:29.394Z,29.50
2019-05-12T08:16:10.007Z,29.50
2019-05-12T08:16:51.322Z,29.50
2019-05-12T08:17:30.310Z,29.50
2019-05-12T08:18:09.307Z,29.50
2019-05-12T08:18:48.119Z,29.50
2019-05-12T08:19:28.630Z,29.50
2019-05-12T08:20:28.395Z,29.50
2019-05-12T08:21:07.196Z,29.50
2019-05-12T08:21:49.055Z,29.50
2019-05-12T08:22:29.311Z,29.50
2019-05-12T08:23:10.341Z,29.50
2019-05-12T08:23:46.870Z,29.50
2019-05-12T08:24:27.002Z,29.50
2019-05-12T08:25:06.631Z,29.60
2019-05-12T08:25:53.397Z,29.60
2019-05-12T08:26:33.499Z,29.60
2019-05-12T08:27:14.332Z,29.60
2019-05-12T08:28:04.194Z,29.60
2019-05-12T08:28:36.095Z,29.60
2019-05-12T08:29:17.022Z,29.60
2019-05-12T08:30:01.150Z,29.60
2019-05-12T08:30:45.387Z,29.60
2019-05-12T08:31:32.955Z,29.60
2019-05-12T08:32:09.856Z,29.60
2019-05-12T08:32:56.255Z,29.60
2019-05-12T08:33:30.003Z,29.60
2019-05-12T08:34:08.943Z,29.60
2019-05-12T08:34:47.772Z,29.60
2019-05-12T08:35:34.586Z,29.60
2019-05-12T08:36:11.398Z,29.60
2019-05-12T08:36:53.376Z,29.60
2019-05-12T08:37:30.295Z,29.60
2019-05-12T08:38:24.871Z,29.70
2019-05-12T08:39:06.229Z,29.60
2019-05-12T08:40:10.253Z,29.60
2019-05-12T08:40:51.123Z,29.60
2019-05-12T08:41:29.705Z,29.60
2019-05-12T08:42:08.997Z,29.60
2019-05-12T08:42:47.851Z,29.60
2019-05-12T08:43:26.838Z,29.60
2019-05-12T08:44:05.943Z,29.60
2019-05-12T08:44:44.854Z,29.60
2019-05-12T08:45:27.943Z,29.60
2019-05-12T08:46:10.045Z,29.60
2019-05-12T08:46:51.812Z,29.70
2019-05-12T08:47:28.975Z,29.70
2019-05-12T08:48:10.067Z,29.70
2019-05-12T08:48:51.543Z,29.60
2019-05-12T08:49:26.569Z,29.70
2019-05-12T08:50:05.678Z,29.70
2019-05-12T08:50:46.138Z,29.70
2019-05-12T08:51:33.741Z,29.60
2019-05-12T08:52:25.093Z,29.70
2019-05-12T08:53:04.611Z,29.70
2019-05-12T08:53:44.126Z,29.70
2019-05-12T08:54:23.297Z,29.70
2019-05-12T08:55:04.280Z,29.70
2019-05-12T08:55:43.598Z,29.70
2019-05-12T08:56:24.031Z,29.70
2019-05-12T08:57:03.856Z,29.60
2019-05-12T08:58:03.594Z,29.60
2019-05-12T08:58:51.073Z,29.60
2019-05-12T08:59:27.329Z,29.50
2019-05-12T09:00:08.599Z,29.50
2019-05-12T09:00:48.782Z,29.50
2019-05-12T09:01:28.645Z,29.50
2019-05-12T09:02:09.972Z,29.60
2019-05-12T09:02:50.427Z,29.60
2019-05-12T09:03:30.317Z,29.60
2019-05-12T09:04:12.020Z,29.60
2019-05-12T09:04:51.494Z,29.60
2019-05-12T09:05:33.696Z,29.70
2019-05-12T09:06:09.242Z,29.70
2019-05-12T09:06:50.152Z,29.70
2019-05-12T09:07:30.446Z,29.70